Time;durP1;ratioP1;P1;durP2;ratioP2;P2;SDS_P1;SDS_P2;PMS_P1;PMS_P2;Temp;Humidity;BMP_temperature;BMP_pressure;BME280_temperature;BME280_humidity;BME280_pressure;Samples;Min_cycle;Max_cycle;Signal;HPM_P1;HPM_P2
2021/11/14 00:01:46;;;;;;;22.85;14.00;;;;;;;9.74;100.00;101879.81;5033940;28;20031;-84
2021/11/14 00:04:11;;;;;;;23.55;14.65;;;;;;;9.75;100.00;101884.16;5059782;28;20053;-84
2021/11/14 00:06:37;;;;;;;21.75;14.00;;;;;;;9.76;100.00;101875.41;5067485;28;20055;-84
2021/11/14 00:09:03;;;;;;;23.92;14.05;;;;;;;9.77;100.00;101884.16;5044869;28;20228;-84
2021/11/14 00:11:28;;;;;;;22.98;13.73;;;;;;;9.74;100.00;101885.06;5051859;28;20111;-84
2021/11/14 00:13:57;;;;;;;25.70;15.35;;;;;;;9.74;100.00;101886.81;5068093;28;20052;-85
2021/11/14 00:16:22;;;;;;;;;;;;;;;9.71;100.00;101892.94;5060801;28;20357;-84
2021/11/14 00:18:48;;;;;;;24.77;14.60;;;;;;;9.69;100.00;101893.88;5053997;28;19943;-84
2021/11/14 00:21:14;;;;;;;26.70;16.13;;;;;;;9.69;100.00;101899.13;5065863;28;20290;-84
2021/11/14 00:23:40;;;;;;;27.75;16.23;;;;;;;9.68;100.00;101889.53;5059563;28;20343;-85
2021/11/14 00:26:05;;;;;;;28.45;16.88;;;;;;;9.65;100.00;101894.84;5051935;28;20032;-86
2021/11/14 00:28:31;;;;;;;27.45;16.45;;;;;;;9.66;100.00;101896.56;5059402;28;20037;-85
2021/11/14 00:30:57;;;;;;;29.33;16.55;;;;;;;9.64;100.00;101899.22;5070705;28;20047;-84
2021/11/14 00:33:22;;;;;;;31.15;16.92;;;;;;;9.63;100.00;101905.34;5086374;28;20129;-84
2021/11/14 00:35:51;;;;;;;33.67;17.77;;;;;;;9.63;100.00;101910.56;5059606;28;20028;-84
2021/11/14 00:38:17;;;;;;;35.42;17.08;;;;;;;9.65;100.00;101907.94;5069300;28;20039;-84
2021/11/14 00:40:42;;;;;;;35.60;18.20;;;;;;;9.65;100.00;101907.94;5052986;28;20024;-84
2021/11/14 00:43:08;;;;;;;34.78;18.17;;;;;;;9.66;100.00;101907.03;5070921;28;20051;-84
2021/11/14 00:45:34;;;;;;;43.97;20.25;;;;;;;9.66;100.00;101913.13;5073686;28;20031;-84
2021/11/14 00:48:00;;;;;;;38.83;19.65;;;;;;;9.67;100.00;101914.84;5057081;28;20051;-84
2021/11/14 00:50:25;;;;;;;41.10;18.55;;;;;;;9.67;100.00;101914.84;5060033;28;20332;-84
2021/11/14 00:52:51;;;;;;;33.47;17.85;;;;;;;9.68;100.00;101911.34;5063317;28;20078;-84
2021/11/14 00:55:17;;;;;;;34.38;18.08;;;;;;;9.69;100.00;101910.44;5062941;28;20035;-84
2021/11/14 00:57:43;;;;;;;40.75;18.67;;;;;;;9.69;100.00;101907.81;5059961;28;20033;-84
2021/11/14 01:00:15;;;;;;;35.40;18.33;;;;;;;9.70;100.00;101911.31;5063140;28;20115;-84
2021/11/14 01:02:41;;;;;;;39.65;18.55;;;;;;;9.69;100.00;101915.66;5043151;28;20099;-84
2021/11/14 01:05:07;;;;;;;35.65;18.30;;;;;;;9.68;100.00;101916.56;5059987;28;20043;-84
2021/11/14 01:07:33;;;;;;;40.90;18.42;;;;;;;9.67;100.00;101914.00;5044598;28;20024;-84
2021/11/14 01:09:58;;;;;;;35.75;17.85;;;;;;;9.65;100.00;101914.00;5067471;28;20166;-85
2021/11/14 01:12:24;;;;;;;35.15;18.75;;;;;;;9.68;100.00;101920.91;5060199;28;20027;-84
2021/11/14 01:14:49;;;;;;;36.03;17.95;;;;;;;9.68;100.00;101915.69;5072258;28;20036;-84
2021/11/14 01:17:16;;;;;;;40.65;19.02;;;;;;;9.68;100.00;101927.03;5038093;28;20363;-84
2021/11/14 01:19:42;;;;;;;38.13;18.90;;;;;;;9.68;100.00;101927.03;5034418;28;20032;-84
2021/11/14 01:22:07;;;;;;;36.55;18.80;;;;;;;9.69;100.00;101927.91;5045086;28;20209;-84
2021/11/14 01:24:33;;;;;;;40.13;18.77;;;;;;;9.70;100.00;101932.25;5052158;28;20237;-84
2021/11/14 01:26:58;;;;;;;34.38;17.70;;;;;;;9.70;100.00;101934.88;5047612;28;20343;-84
2021/11/14 01:29:23;;;;;;;37.13;19.00;;;;;;;9.70;100.00;101938.34;5060112;28;20063;-84
2021/11/14 01:31:49;;;;;;;38.38;18.55;;;;;;;9.69;100.00;101935.75;5052924;28;20037;-85
2021/11/14 01:34:14;;;;;;;31.85;17.75;;;;;;;9.67;100.00;101943.63;5052196;28;20035;-84
2021/11/14 01:36:40;;;;;;;34.00;18.50;;;;;;;9.66;100.00;101936.69;5063914;28;20086;-85
2021/11/14 01:39:06;;;;;;;35.08;18.58;;;;;;;9.64;100.00;101934.97;5071734;28;20340;-84
2021/11/14 01:41:31;;;;;;;33.15;17.52;;;;;;;9.65;100.00;101947.16;5075620;28;20023;-84
2021/11/14 01:43:57;;;;;;;33.95;18.77;;;;;;;9.65;100.00;101942.78;5059661;28;20086;-84
2021/11/14 01:46:22;;;;;;;29.17;16.75;;;;;;;9.64;100.00;101942.81;5038775;28;20322;-84
2021/11/14 01:48:48;;;;;;;32.75;17.45;;;;;;;9.63;100.00;101943.72;5038221;28;20113;-84
2021/11/14 01:51:14;;;;;;;33.65;17.95;;;;;;;9.61;100.00;101952.44;5064088;28;20056;-84
2021/11/14 01:53:39;;;;;;;39.50;19.13;;;;;;;9.61;100.00;101962.06;5054209;28;20036;-84
2021/11/14 01:56:06;;;;;;;34.20;18.15;;;;;;;9.63;100.00;101964.66;5056854;28;20045;-84
2021/11/14 01:58:32;;;;;;;41.25;19.05;;;;;;;9.63;100.00;101960.25;5062223;28;20040;-84
2021/11/14 02:04:19;;;;;;;41.55;19.80;;;;;;;9.66;100.00;101964.56;5041406;28;20224;-84
2021/11/14 02:06:46;;;;;;;43.03;19.13;;;;;;;9.66;100.00;101970.69;5075181;28;20099;-84
2021/11/14 02:09:13;;;;;;;52.67;20.52;;;;;;;9.67;100.00;101972.38;5043493;28;20112;-84
2021/11/14 02:11:38;;;;;;;44.20;19.92;;;;;;;9.70;100.00;101969.72;5027388;28;20255;-84
2021/11/14 02:14:04;;;;;;;60.63;22.23;;;;;;;9.72;100.00;101975.78;5054839;28;20086;-84
2021/11/14 02:16:29;;;;;;;47.17;21.05;;;;;;;9.72;100.00;101973.16;5057919;28;20052;-84
2021/11/14 02:18:55;;;;;;;45.13;21.08;;;;;;;9.73;100.00;101980.13;5051166;28;20112;-84
2021/11/14 02:21:21;;;;;;;49.97;22.17;;;;;;;9.74;100.00;101976.59;5055236;28;20244;-84
2021/11/14 02:23:48;;;;;;;45.25;20.77;;;;;;;9.72;100.00;101981.00;5040370;28;20033;-84
2021/11/14 02:26:14;;;;;;;44.92;20.95;;;;;;;9.73;100.00;101980.13;5056955;28;20025;-84
2021/11/14 02:28:40;;;;;;;45.25;21.55;;;;;;;9.72;100.00;101991.47;5039203;28;20232;-84
2021/11/14 02:31:06;;;;;;;41.35;20.83;;;;;;;9.73;100.00;101989.72;5060586;28;20359;-84
2021/11/14 02:33:32;;;;;;;43.63;21.25;;;;;;;9.72;100.00;101994.09;5058224;28;20036;-84
2021/11/14 02:36:00;;;;;;;49.20;21.10;;;;;;;9.72;100.00;102006.31;5073479;28;20107;-84
2021/11/14 02:38:25;;;;;;;43.15;20.90;;;;;;;9.73;100.00;102001.06;5041223;28;20048;-84
2021/11/14 02:40:51;;;;;;;44.95;20.63;;;;;;;9.73;100.00;102011.53;5023388;28;20037;-84
2021/11/14 02:43:18;;;;;;;44.25;19.95;;;;;;;9.74;100.00;102008.00;5055465;28;20045;-84
2021/11/14 02:45:43;;;;;;;44.88;21.00;;;;;;;9.73;100.00;102008.03;5057691;28;20351;-84
2021/11/14 02:48:09;;;;;;;41.13;20.40;;;;;;;9.74;100.00;102012.38;5043855;28;20028;-84
2021/11/14 02:50:35;;;;;;;49.25;21.65;;;;;;;9.72;100.00;102007.16;5073490;28;20211;-84
2021/11/14 02:53:00;;;;;;;53.42;22.52;;;;;;;9.72;100.00;102012.41;5047437;28;20042;-84
2021/11/14 02:55:26;;;;;;;54.35;23.52;;;;;;;9.73;100.00;102011.53;5041625;28;20340;-84
2021/11/14 02:57:52;;;;;;;47.22;21.85;;;;;;;9.73;100.00;102018.50;5059142;28;20052;-84
2021/11/14 03:00:22;;;;;;;56.28;24.38;;;;;;;9.72;100.00;102017.63;5046426;28;20344;-84
2021/11/14 03:02:48;;;;;;;49.25;22.38;;;;;;;9.70;100.00;102019.44;5041935;28;20028;-84
2021/11/14 03:05:15;;;;;;;55.00;22.80;;;;;;;9.67;100.00;102014.22;5036974;28;20349;-84
2021/11/14 03:07:41;;;;;;;56.17;23.15;;;;;;;9.67;100.00;102014.22;5066764;28;20328;-84
2021/11/14 03:10:08;;;;;;;49.20;21.60;;;;;;;9.64;100.00;102019.53;5061873;28;20103;-84
2021/11/14 03:12:34;;;;;;;50.45;23.42;;;;;;;9.63;100.00;102028.28;5047891;28;20329;-84
2021/11/14 03:14:59;;;;;;;60.63;25.05;;;;;;;9.60;100.00;102028.31;5065161;28;20045;-84
2021/11/14 03:17:25;;;;;;;58.67;23.88;;;;;;;9.56;100.00;102026.66;5045027;28;20032;-84
2021/11/14 03:19:50;;;;;;;51.97;23.35;;;;;;;9.55;100.00;102031.03;5073135;28;20032;-84
2021/11/14 03:22:16;;;;;;;52.35;22.80;;;;;;;9.55;100.00;102043.22;5042515;28;20043;-84
2021/11/14 03:24:41;;;;;;;65.68;24.80;;;;;;;9.54;100.00;102039.75;5069101;28;20044;-84
2021/11/14 03:27:07;;;;;;;62.38;26.67;;;;;;;9.57;100.00;102044.09;5065655;28;20112;-84
2021/11/14 03:29:32;;;;;;;53.70;23.85;;;;;;;9.58;100.00;102048.41;5044201;28;20394;-86
2021/11/14 03:31:58;;;;;;;64.72;25.98;;;;;;;9.56;100.00;102043.19;5075671;28;20055;-86
2021/11/14 03:34:23;;;;;;;62.47;27.10;;;;;;;9.57;100.00;102044.09;5071429;28;20072;-86
2021/11/14 03:36:48;;;;;;;63.63;26.00;;;;;;;9.57;100.00;102046.69;5042781;28;20041;-86
2021/11/14 03:39:14;;;;;;;67.32;26.25;;;;;;;9.57;100.00;102051.94;5058825;28;20232;-84
2021/11/14 03:41:40;;;;;;;70.13;28.40;;;;;;;9.58;100.00;102051.88;5056751;28;20039;-84
2021/11/14 03:44:06;;;;;;;69.78;27.50;;;;;;;9.60;100.00;102057.09;5040993;28;20035;-84
2021/11/14 03:46:31;;;;;;;70.78;27.35;;;;;;;9.59;100.00;102056.22;5057074;28;20032;-84
2021/11/14 03:48:57;;;;;;;78.22;29.65;;;;;;;9.59;100.00;102053.63;5060543;28;20066;-84
2021/11/14 03:51:23;;;;;;;74.57;28.88;;;;;;;9.62;100.00;102063.16;5047757;28;20072;-84
2021/11/14 03:53:49;;;;;;;78.90;29.45;;;;;;;9.61;100.00;102058.81;5047317;28;20037;-84
2021/11/14 03:56:14;;;;;;;80.47;30.30;;;;;;;9.64;100.00;102070.97;5048423;28;20120;-84
2021/11/14 03:58:40;;;;;;;71.82;30.05;;;;;;;9.64;100.00;102074.47;5041894;28;20117;-84
2021/11/14 04:01:08;;;;;;;77.05;28.00;;;;;;;9.63;100.00;102070.13;5048299;28;20037;-84
2021/11/14 04:03:33;;;;;;;82.32;30.63;;;;;;;9.65;100.00;102065.72;5050846;28;20025;-84
2021/11/14 04:05:59;;;;;;;81.32;31.00;;;;;;;9.66;100.00;102072.69;5041308;28;20036;-84
2021/11/14 04:08:25;;;;;;;81.72;30.83;;;;;;;9.68;100.00;102077.88;5038475;28;20036;-84
2021/11/14 04:10:51;;;;;;;78.63;28.73;;;;;;;9.68;100.00;102077.88;5046603;28;20032;-84
2021/11/14 04:13:17;;;;;;;79.95;30.77;;;;;;;9.68;100.00;102080.47;5051505;28;20088;-84
2021/11/14 04:15:42;;;;;;;79.60;29.10;;;;;;;9.67;100.00;102082.25;5009876;28;20037;-84
2021/11/14 04:18:08;;;;;;;81.38;30.38;;;;;;;9.68;100.00;102085.72;5030428;28;20041;-84
2021/11/14 04:20:34;;;;;;;77.38;29.83;;;;;;;9.68;100.00;102089.22;5037295;28;20045;-84
2021/11/14 04:23:00;;;;;;;80.65;29.85;;;;;;;9.69;100.00;102090.94;5010076;28;20045;-84
2021/11/14 04:25:26;;;;;;;82.88;31.17;;;;;;;9.69;100.00;102090.06;5056297;28;20060;-84
2021/11/14 04:27:51;;;;;;;74.70;29.35;;;;;;;9.69;100.00;102090.94;5021539;28;20028;-84
2021/11/14 04:30:17;;;;;;;82.85;29.98;;;;;;;9.70;100.00;102091.81;5040866;28;20037;-84
2021/11/14 04:32:43;;;;;;;94.80;31.92;;;;;;;9.70;100.00;102097.03;5038430;28;20051;-84
2021/11/14 04:35:09;;;;;;;79.50;30.73;;;;;;;9.69;100.00;102103.16;5037645;28;20037;-84
2021/11/14 04:37:35;;;;;;;83.13;30.77;;;;;;;9.68;100.00;102102.31;5016647;28;20026;-84
2021/11/14 04:40:00;;;;;;;73.65;29.20;;;;;;;9.66;100.00;102101.47;5020771;28;20337;-84
2021/11/14 04:42:26;;;;;;;74.30;29.35;;;;;;;9.67;100.00;102110.16;5015658;28;20032;-84
2021/11/14 04:44:51;;;;;;;70.97;27.55;;;;;;;9.65;100.00;102102.34;5038532;28;20033;-84
2021/11/14 04:47:17;;;;;;;73.45;28.27;;;;;;;9.66;100.00;102113.66;5027648;28;20025;-84
2021/11/14 04:49:42;;;;;;;80.80;28.85;;;;;;;9.64;100.00;102113.72;5052248;28;20328;-84
2021/11/14 04:52:08;;;;;;;69.85;29.38;;;;;;;9.64;100.00;102118.06;5056509;28;20035;-84
2021/11/14 04:54:34;;;;;;;71.90;27.50;;;;;;;9.61;100.00;102117.22;5039829;28;20059;-84
2021/11/14 04:56:59;;;;;;;66.45;26.08;;;;;;;9.61;100.00;102121.59;5046736;28;20349;-84
2021/11/14 04:59:25;;;;;;;63.20;24.60;;;;;;;9.60;100.00;102123.34;5040214;28;20039;-84
2021/11/14 05:01:50;;;;;;;65.20;24.35;;;;;;;9.58;100.00;102134.72;5059479;28;20040;-84
2021/11/14 05:04:15;;;;;;;64.65;25.80;;;;;;;9.58;100.00;102122.50;5023691;28;20027;-84
2021/11/14 05:06:41;;;;;;;67.85;25.52;;;;;;;9.58;100.00;102132.09;5061658;28;20417;-84
2021/11/14 05:09:07;;;;;;;63.72;25.08;;;;;;;9.56;100.00;102126.88;5070675;28;20047;-84
2021/11/14 05:11:32;;;;;;;67.25;25.35;;;;;;;9.57;100.00;102130.38;5040950;28;20356;-84
2021/11/14 05:13:57;;;;;;;57.97;23.95;;;;;;;9.57;100.00;102136.47;5055820;28;20043;-84
2021/11/14 05:16:23;;;;;;;65.50;26.42;;;;;;;9.55;100.00;102135.63;5058884;28;20100;-84
2021/11/14 05:18:48;;;;;;;68.35;25.60;;;;;;;9.53;100.00;102139.16;5076565;28;20040;-84
2021/11/14 05:21:14;;;;;;;72.68;27.70;;;;;;;9.53;100.00;102144.38;5055682;28;20041;-84
2021/11/14 05:23:39;;;;;;;60.75;25.00;;;;;;;9.53;100.00;102137.41;5057655;28;20040;-84
2021/11/14 05:26:05;;;;;;;64.10;25.13;;;;;;;9.54;100.00;102141.75;5073204;28;20108;-84
2021/11/14 05:28:30;;;;;;;61.75;23.85;;;;;;;9.53;100.00;102142.66;5057125;28;20036;-84
2021/11/14 05:30:56;;;;;;;55.58;22.42;;;;;;;9.53;100.00;102147.00;5059685;28;20063;-84
2021/11/14 05:33:21;;;;;;;54.83;22.15;;;;;;;9.51;100.00;102149.63;5060967;28;20116;-84
2021/11/14 05:35:47;;;;;;;55.50;21.63;;;;;;;9.51;100.00;102154.00;5059537;28;20116;-84
2021/11/14 05:38:12;;;;;;;62.38;23.70;;;;;;;9.50;100.00;102150.53;5028598;28;20037;-84
2021/11/14 05:40:38;;;;;;;52.53;21.52;;;;;;;9.52;100.00;102167.06;5039259;28;20040;-84
2021/11/14 05:43:03;;;;;;;54.55;22.08;;;;;;;9.49;100.00;102168.84;5058040;28;20052;-84
2021/11/14 05:45:29;;;;;;;56.17;23.23;;;;;;;9.50;100.00;102178.44;5055892;28;20029;-84
2021/11/14 05:47:54;;;;;;;53.53;21.35;;;;;;;9.48;100.00;102165.38;5045829;28;20029;-84
2021/11/14 05:50:20;;;;;;;50.10;21.20;;;;;;;9.51;100.00;102178.41;5058812;28;20110;-85
2021/11/14 05:52:45;;;;;;;48.38;20.30;;;;;;;9.50;100.00;102179.28;5055558;28;20064;-84
2021/11/14 05:55:11;;;;;;;52.08;20.25;;;;;;;9.52;100.00;102184.50;5040569;28;20354;-84
2021/11/14 05:58:01;;;;;;;47.85;20.13;;;;;;;9.50;100.00;102181.91;5069047;28;20239;-84
2021/11/14 06:00:29;;;;;;;45.63;19.50;;;;;;;9.50;100.00;102184.53;5061500;28;20048;-84
2021/11/14 06:03:03;;;;;;;45.97;18.58;;;;;;;9.52;100.00;102192.34;5057955;28;20084;-84
2021/11/14 06:05:31;;;;;;;42.80;18.02;;;;;;;9.49;100.00;102197.63;5063261;28;20039;-84
2021/11/14 06:07:57;;;;;;;43.00;18.50;;;;;;;9.51;100.00;102201.94;5059876;28;20032;-84
2021/11/14 06:10:22;;;;;;;41.58;17.70;;;;;;;9.49;100.00;102198.47;5066518;28;20157;-84
2021/11/14 06:12:48;;;;;;;41.95;18.08;;;;;;;9.50;100.00;102194.13;5068858;28;20259;-84
2021/11/14 06:15:14;;;;;;;48.42;19.35;;;;;;;9.47;100.00;102197.63;5059333;28;20040;-84
2021/11/14 06:17:40;;;;;;;52.05;19.42;;;;;;;9.47;100.00;102204.63;5075653;28;20343;-84
2021/11/14 06:20:06;;;;;;;44.53;18.20;;;;;;;9.48;100.00;102201.09;5081956;28;20028;-84
2021/11/14 06:22:31;;;;;;;44.00;18.85;;;;;;;9.50;100.00;102212.44;5045559;28;20092;-84
2021/11/14 06:24:57;;;;;;;47.00;20.13;;;;;;;9.51;100.00;102216.75;5063138;28;20032;-84
2021/11/14 06:27:23;;;;;;;44.65;20.67;;;;;;;9.48;100.00;102217.69;5033493;28;20031;-84
2021/11/14 06:29:48;;;;;;;47.25;20.45;;;;;;;9.47;100.00;102221.16;5051734;28;20051;-84
2021/11/14 06:32:14;;;;;;;51.60;21.38;;;;;;;9.47;100.00;102218.56;5076853;28;20297;-84
2021/11/14 06:34:39;;;;;;;53.97;21.73;;;;;;;9.49;100.00;102226.38;5062879;28;20036;-84
2021/11/14 06:37:05;;;;;;;49.63;20.77;;;;;;;9.50;100.00;102230.75;5049422;28;20035;-84
2021/11/14 06:39:30;;;;;;;57.33;22.20;;;;;;;9.50;100.00;102241.22;5082426;28;20047;-84
2021/11/14 06:41:56;;;;;;;55.45;21.75;;;;;;;9.48;100.00;102236.00;5080791;28;20088;-84
2021/11/14 06:44:21;;;;;;;56.90;23.77;;;;;;;9.46;99.94;102250.84;5080292;28;20254;-83
2021/11/14 06:46:47;;;;;;;52.45;22.08;;;;;;;9.46;100.00;102249.94;5074406;28;20087;-84
2021/11/14 06:49:12;;;;;;;52.20;21.55;;;;;;;9.44;100.00;102255.22;5082803;28;20142;-84
2021/11/14 06:51:38;;;;;;;56.35;22.17;;;;;;;9.44;100.00;102260.47;5065122;28;20042;-84
2021/11/14 06:54:03;;;;;;;47.75;21.80;;;;;;;9.44;99.89;102264.81;5060102;28;20154;-84
2021/11/14 06:56:28;;;;;;;54.13;22.20;;;;;;;9.43;99.96;102265.72;5061941;28;20036;-84
2021/11/14 06:58:54;;;;;;;54.85;23.92;;;;;;;9.45;100.00;102275.25;5081418;28;20038;-84
2021/11/14 07:01:19;;;;;;;59.83;24.25;;;;;;;9.42;100.00;102277.91;5057363;28;20028;-84
2021/11/14 07:03:45;;;;;;;49.42;22.02;;;;;;;9.40;99.95;102277.06;5065265;28;20205;-84
2021/11/14 07:06:10;;;;;;;58.03;23.20;;;;;;;9.40;100.00;102282.28;5082743;28;20035;-84
2021/11/14 07:08:35;;;;;;;56.58;22.33;;;;;;;9.38;99.68;102284.91;5053602;28;20102;-84
2021/11/14 07:11:01;;;;;;;55.35;22.60;;;;;;;9.37;99.75;102284.97;5058104;28;20340;-84
2021/11/14 07:13:27;;;;;;;57.70;23.58;;;;;;;9.36;99.71;102291.91;5058338;28;20031;-84
2021/11/14 07:15:52;;;;;;;57.17;23.42;;;;;;;9.35;99.92;102295.44;5064228;28;20036;-84
2021/11/14 07:18:17;;;;;;;47.85;21.85;;;;;;;9.33;99.98;102291.97;5060539;28;20020;-84
2021/11/14 07:20:43;;;;;;;62.63;24.90;;;;;;;9.34;99.34;102308.53;5062609;28;20036;-84
2021/11/14 07:23:08;;;;;;;60.35;24.02;;;;;;;9.34;99.83;102316.34;5063578;28;20034;-84
2021/11/14 07:25:34;;;;;;;56.63;24.08;;;;;;;9.33;100.00;102318.13;5059700;28;20396;-84
2021/11/14 07:27:59;;;;;;;62.03;25.15;;;;;;;9.34;99.77;102321.59;5065295;28;20063;-84
2021/11/14 07:30:25;;;;;;;61.88;25.15;;;;;;;9.34;99.80;102330.28;5059680;28;20056;-84
2021/11/14 07:32:51;;;;;;;65.45;24.98;;;;;;;9.34;99.77;102317.22;5081082;28;20027;-84
2021/11/14 07:35:19;;;;;;;62.85;25.70;;;;;;;9.34;99.74;102338.13;5077452;28;20048;-84
2021/11/14 07:37:44;;;;;;;70.55;25.90;;;;;;;9.36;100.00;102338.13;5048180;28;20039;-84
2021/11/14 07:40:11;;;;;;;66.72;25.48;;;;;;;9.35;100.00;102346.84;5060180;28;20073;-85
2021/11/14 07:42:37;;;;;;;64.22;26.38;;;;;;;9.35;99.94;102346.84;5086935;28;20251;-85
2021/11/14 07:45:05;;;;;;;64.03;26.02;;;;;;;9.35;100.00;102350.34;5057041;28;20036;-84
2021/11/14 07:47:30;;;;;;;61.95;24.67;;;;;;;9.40;99.77;102359.00;5058506;28;20056;-84
2021/11/14 07:49:55;;;;;;;69.32;26.10;;;;;;;9.40;99.98;102352.88;5052298;28;20155;-84
2021/11/14 07:52:21;;;;;;;63.00;25.38;;;;;;;9.39;99.72;102357.25;5046477;28;20112;-84
2021/11/14 07:54:46;;;;;;;73.00;27.20;;;;;;;9.41;99.79;102367.69;5063762;28;20040;-84
2021/11/14 07:57:12;;;;;;;64.25;24.92;;;;;;;9.44;99.78;102369.41;5056787;28;20051;-84
2021/11/14 07:59:37;;;;;;;75.20;27.33;;;;;;;9.46;99.65;102371.13;5044465;28;20036;-84
2021/11/14 08:02:03;;;;;;;68.00;25.52;;;;;;;9.44;99.63;102370.28;5046692;28;20059;-84
2021/11/14 08:04:29;;;;;;;69.28;25.88;;;;;;;9.44;99.30;102388.59;5044952;28;20340;-84
2021/11/14 08:06:56;;;;;;;60.80;24.05;;;;;;;9.41;99.54;102384.25;5068659;28;20030;-84
2021/11/14 08:09:22;;;;;;;61.20;25.38;;;;;;;9.39;98.88;102374.69;5075019;28;20077;-83
2021/11/14 08:11:47;;;;;;;59.47;23.00;;;;;;;9.39;98.75;102383.41;5047125;28;20256;-84
2021/11/14 08:14:14;;;;;;;61.72;24.23;;;;;;;9.40;98.94;102387.75;5069896;28;20374;-84
2021/11/14 08:16:39;;;;;;;63.95;25.50;;;;;;;9.41;98.63;102384.25;5068591;28;20071;-84
2021/11/14 08:19:04;;;;;;;57.83;23.48;;;;;;;9.42;98.62;102387.72;5090463;28;20336;-84
2021/11/14 08:21:30;;;;;;;63.03;24.70;;;;;;;9.41;98.57;102392.09;5084982;28;20339;-84
2021/11/14 08:23:55;;;;;;;64.35;24.98;;;;;;;9.43;98.46;102399.06;5043602;28;20035;-84
2021/11/14 08:26:21;;;;;;;63.85;25.17;;;;;;;9.46;98.42;102401.63;5034684;28;20025;-84
2021/11/14 08:28:46;;;;;;;62.92;24.70;;;;;;;9.45;98.53;102399.91;5082613;28;20036;-84
2021/11/14 08:31:15;;;;;;;59.33;23.08;;;;;;;9.47;98.40;102401.63;5043742;28;20043;-84
2021/11/14 08:33:40;;;;;;;;;;;;;;;9.49;98.44;102401.59;5070140;28;20066;-84
2021/11/14 08:36:06;;;;;;;65.30;25.40;;;;;;;9.50;98.42;102395.50;5055491;28;19948;-84
2021/11/14 08:38:31;;;;;;;63.20;24.63;;;;;;;9.50;98.25;102398.97;5085891;28;20090;-84
2021/11/14 08:40:57;;;;;;;61.40;24.50;;;;;;;9.51;98.47;102405.06;5046160;28;20043;-84
2021/11/14 08:43:22;;;;;;;66.47;26.02;;;;;;;9.51;98.25;102405.06;5082880;28;20340;-86
2021/11/14 08:45:48;;;;;;;62.88;25.17;;;;;;;9.52;98.18;102406.81;5047689;28;20185;-86
2021/11/14 08:48:13;;;;;;;63.97;25.80;;;;;;;9.50;98.12;102414.66;5058660;28;20109;-86
2021/11/14 08:50:39;;;;;;;63.53;25.90;;;;;;;9.51;98.06;102412.91;5074231;28;20130;-86
2021/11/14 08:53:04;;;;;;;66.72;27.70;;;;;;;9.53;98.18;102408.53;5072772;28;20374;-86
2021/11/14 08:55:30;;;;;;;64.10;26.10;;;;;;;9.57;98.45;102411.09;5063928;28;20360;-86
2021/11/14 08:57:56;;;;;;;69.53;27.52;;;;;;;9.56;98.23;102405.88;5072354;28;20040;-86
2021/11/14 09:00:23;;;;;;;68.28;27.58;;;;;;;9.56;98.25;102408.50;5064809;28;20255;-86
2021/11/14 09:02:49;;;;;;;71.28;27.25;;;;;;;9.54;97.80;102412.88;5070823;28;20351;-87
2021/11/14 09:05:17;;;;;;;61.42;24.38;;;;;;;9.56;97.92;102413.72;5079406;28;20024;-87
2021/11/14 09:07:43;;;;;;;73.72;28.48;;;;;;;9.56;98.15;102424.19;5090416;28;20035;-86
2021/11/14 09:10:09;;;;;;;65.97;27.38;;;;;;;9.58;98.15;102422.41;5065458;28;20378;-87
2021/11/14 09:12:35;;;;;;;66.72;26.48;;;;;;;9.61;98.01;102431.09;5052415;28;20078;-87
2021/11/14 09:15:01;;;;;;;74.15;28.27;;;;;;;9.62;97.90;102434.56;5070402;28;20039;-87
2021/11/14 09:17:26;;;;;;;69.45;27.13;;;;;;;9.65;97.88;102428.47;5063430;28;20417;-87
2021/11/14 09:19:52;;;;;;;67.45;26.88;;;;;;;9.68;97.72;102434.53;5035862;28;20036;-86
2021/11/14 09:22:17;;;;;;;57.28;26.15;;;;;;;9.71;97.22;102441.47;5064582;28;20036;-87
2021/11/14 09:24:43;;;;;;;64.47;26.40;;;;;;;9.72;97.21;102436.22;5038895;28;20074;-87
2021/11/14 09:27:08;;;;;;;64.07;26.88;;;;;;;9.73;97.03;102447.53;5026593;28;20205;-86
2021/11/14 09:29:34;;;;;;;59.80;26.50;;;;;;;9.72;96.95;102440.59;5062976;28;20040;-86
2021/11/14 09:31:59;;;;;;;62.83;25.70;;;;;;;9.72;96.85;102441.44;5054214;28;20406;-87
2021/11/14 09:34:25;;;;;;;61.78;26.02;;;;;;;9.74;96.75;102454.50;5057974;28;20164;-87
2021/11/14 09:36:50;;;;;;;63.75;27.42;;;;;;;9.77;97.21;102451.88;5088713;28;20036;-87
2021/11/14 09:39:16;;;;;;;66.82;27.00;;;;;;;9.77;97.03;102463.19;5060650;28;20041;-86
2021/11/14 09:41:46;;;;;;;66.68;27.20;;;;;;;9.76;96.83;102471.06;5033129;28;20065;-86
2021/11/14 09:44:16;;;;;;;63.80;25.98;;;;;;;9.81;96.76;102469.25;5071217;28;20153;-87
2021/11/14 09:46:47;;;;;;;67.05;27.15;;;;;;;9.86;97.13;102470.06;5044681;28;20092;-86
2021/11/14 09:49:14;;;;;;;59.10;26.45;;;;;;;9.89;97.02;102474.41;5055899;28;20044;-86
2021/11/14 09:51:39;;;;;;;57.42;26.00;;;;;;;9.90;96.67;102474.38;5066093;28;20047;-86
2021/11/14 09:54:06;;;;;;;65.10;27.52;;;;;;;9.92;96.82;102479.59;5054382;28;20239;-87
2021/11/14 09:56:32;;;;;;;59.70;26.45;;;;;;;9.93;96.37;102486.56;5043450;28;20295;-87
2021/11/14 09:58:57;;;;;;;59.28;26.27;;;;;;;9.91;96.44;102481.34;5048621;28;20044;-87
2021/11/14 10:01:23;;;;;;;58.45;26.52;;;;;;;9.96;96.58;102492.63;5065337;28;20042;-87
2021/11/14 10:03:48;;;;;;;65.75;27.92;;;;;;;9.97;96.56;102490.91;5067652;28;20040;-86
2021/11/14 10:06:14;;;;;;;57.35;26.20;;;;;;;9.98;96.62;102492.59;5065921;28;20020;-86
2021/11/14 10:08:42;;;;;;;66.57;26.27;;;;;;;10.02;96.72;102502.16;5051139;28;20043;-86
2021/11/14 10:11:08;;;;;;;61.95;26.75;;;;;;;10.04;96.55;102496.91;5062310;28;20111;-86
2021/11/14 10:13:34;;;;;;;63.83;27.55;;;;;;;10.06;96.26;102498.63;5090022;28;20051;-87
2021/11/14 10:16:20;;;;;;;60.05;26.17;;;;;;;10.10;96.79;102500.31;5049268;28;20316;-86
2021/11/14 10:18:59;;;;;;;62.55;26.67;;;;;;;10.13;96.39;102499.41;5064700;28;20332;-87
2021/11/14 10:21:26;;;;;;;57.53;24.77;;;;;;;10.10;96.00;102499.47;5058399;28;20055;-87
2021/11/14 10:23:51;;;;;;;53.78;24.15;;;;;;;10.11;95.53;102507.28;5056366;28;20097;-87
2021/11/14 10:26:17;;;;;;;56.95;26.08;;;;;;;10.12;95.47;102502.94;5064036;28;20036;-87
2021/11/14 10:28:48;;;;;;;54.97;25.83;;;;;;;10.11;95.25;102502.03;5054380;28;20044;-87
2021/11/14 10:31:19;;;;;;;55.95;25.60;;;;;;;10.12;95.36;102509.03;5057174;28;20046;-86
2021/11/14 10:33:45;;;;;;;54.22;24.42;;;;;;;10.16;95.69;102509.84;5049511;28;20051;-87
2021/11/14 10:36:10;;;;;;;47.13;23.30;;;;;;;10.16;95.34;102509.84;5075485;28;20080;-87
2021/11/14 10:38:38;;;;;;;48.58;22.33;;;;;;;10.22;95.58;102516.75;5069859;28;20028;-87
2021/11/14 10:41:06;;;;;;;51.10;24.08;;;;;;;10.22;95.63;102519.38;5036407;28;20116;-87
2021/11/14 10:43:31;;;;;;;46.20;22.50;;;;;;;10.19;95.50;102518.53;5047991;28;20323;-87
2021/11/14 10:45:58;;;;;;;52.47;24.00;;;;;;;10.23;95.33;102521.13;5059382;28;20040;-87
2021/11/14 10:48:25;;;;;;;50.75;21.98;;;;;;;10.24;95.26;102528.06;5040664;28;20024;-87
2021/11/14 10:50:54;;;;;;;49.90;22.38;;;;;;;10.24;95.14;102522.84;5055414;28;20050;-87
2021/11/14 10:53:21;;;;;;;47.60;21.75;;;;;;;10.24;95.21;102533.31;5059800;28;20032;-87
2021/11/14 10:55:52;;;;;;;44.08;21.35;;;;;;;10.23;95.05;102531.59;5058715;28;20048;-87
2021/11/14 10:58:18;;;;;;;47.92;21.83;;;;;;;10.18;94.64;102535.13;5069152;28;20107;-87
2021/11/14 11:00:45;;;;;;;39.90;19.67;;;;;;;10.18;94.38;102537.72;5044342;28;20328;-87
2021/11/14 11:03:10;;;;;;;39.05;18.33;;;;;;;10.19;94.31;102541.25;5056639;28;20281;-87
2021/11/14 11:05:36;;;;;;;43.05;20.30;;;;;;;10.15;94.13;102539.53;5087048;28;20072;-86
2021/11/14 11:08:31;;;;;;;38.75;19.73;;;;;;;10.17;94.42;102549.09;5050683;28;20059;-87
2021/11/14 11:10:58;;;;;;;49.00;21.15;;;;;;;10.19;94.79;102539.47;5083788;28;20052;-87